Terminal Aerodrome Forecast
Issued by NWS

Home | Current Version | Previous Version | Text Only | Print | Product List | Glossary On
Versions: 1 2 3 4 5 6 7 8 9 10 11 12 13
124
FTUS43 KICT 161140
TAFHUT
TAF
KHUT 161140Z 1612/1712 18009KT P6SM SKC
     FM161700 19017G24KT P6SM SKC
     FM162300 17011KT P6SM SCT100 BKN200
     FM170700 16009KT P6SM VCSH SCT030 BKN050=

USA.gov is the U.S. government's official web portal to all federal, state and local government web resources and services.